createdAt,value
2019-02-07T00:04:48.995Z,7.70
2019-02-07T00:09:55.101Z,7.70
2019-02-07T00:15:01.716Z,7.70
2019-02-07T00:20:10.342Z,7.70
2019-02-07T00:25:16.686Z,7.70
2019-02-07T00:30:22.928Z,7.70
2019-02-07T00:35:28.924Z,7.70
2019-02-07T00:40:35.275Z,7.70
2019-02-07T00:45:41.337Z,7.70
2019-02-07T00:50:48.432Z,7.70
2019-02-07T00:55:54.600Z,7.70
2019-02-07T01:01:01.042Z,7.70
2019-02-07T01:06:07.459Z,7.70
2019-02-07T01:11:13.602Z,7.80
2019-02-07T01:16:21.750Z,7.80
2019-02-07T01:21:27.810Z,7.90
2019-02-07T01:26:34.941Z,7.90
2019-02-07T01:31:41.169Z,8.00
2019-02-07T01:36:47.507Z,8.00
2019-02-07T01:41:53.943Z,8.00
2019-02-07T01:47:00.096Z,8.10
2019-02-07T01:52:06.321Z,8.10
2019-02-07T01:57:12.585Z,8.10
2019-02-07T02:02:19.032Z,8.10
2019-02-07T02:07:25.131Z,8.20
2019-02-07T02:12:31.348Z,8.20
2019-02-07T02:17:37.628Z,8.20
2019-02-07T02:22:43.733Z,8.30
2019-02-07T02:27:49.877Z,8.30
2019-02-07T02:32:56.037Z,8.40
2019-02-07T02:38:02.430Z,8.40
2019-02-07T02:43:09.762Z,8.50
2019-02-07T02:48:15.884Z,8.50
2019-02-07T02:53:22.150Z,8.60
2019-02-07T02:58:28.186Z,8.60
2019-02-07T03:03:42.141Z,8.60
2019-02-07T03:09:06.380Z,8.60
2019-02-07T03:14:39.620Z,8.60
2019-02-07T03:20:03.227Z,8.70
2019-02-07T03:25:27.631Z,8.70
2019-02-07T03:30:51.456Z,8.80
2019-02-07T03:36:19.672Z,8.80
2019-02-07T03:41:48.769Z,8.80
2019-02-07T03:47:17.893Z,8.90
2019-02-07T03:52:41.742Z,8.90
2019-02-07T03:58:16.543Z,8.90
2019-02-07T04:03:40.477Z,9.00
2019-02-07T04:08:59.997Z,9.00
2019-02-07T04:14:18.040Z,9.00
2019-02-07T04:19:35.879Z,9.10
2019-02-07T04:25:14.073Z,9.10
2019-02-07T04:30:38.131Z,9.10
2019-02-07T04:36:15.487Z,9.10
2019-02-07T04:41:46.942Z,9.20
2019-02-07T04:47:18.992Z,9.10
2019-02-07T04:52:43.358Z,9.10
2019-02-07T04:58:07.985Z,9.20
2019-02-07T05:03:38.991Z,9.20
2019-02-07T05:09:11.407Z,9.20
2019-02-07T05:14:42.537Z,9.20
2019-02-07T05:20:11.470Z,9.20
2019-02-07T05:25:45.463Z,9.10
2019-02-07T05:30:59.628Z,9.20
2019-02-07T05:36:27.992Z,9.20
2019-02-07T05:42:00.974Z,9.20
2019-02-07T05:47:37.074Z,9.20
2019-02-07T05:53:05.414Z,9.20
2019-02-07T05:58:37.444Z,9.10
2019-02-07T06:04:11.961Z,9.00
2019-02-07T06:09:41.042Z,8.80
2019-02-07T06:15:09.152Z,8.80
2019-02-07T06:20:43.157Z,8.70
2019-02-07T06:25:59.152Z,8.60
2019-02-07T06:31:25.041Z,8.50
2019-02-07T06:36:54.881Z,8.40
2019-02-07T06:42:32.253Z,8.30
2019-02-07T06:48:00.135Z,8.20
2019-02-07T06:53:35.055Z,8.20
2019-02-07T06:59:06.413Z,8.10
2019-02-07T07:04:20.583Z,8.00
2019-02-07T07:09:48.377Z,8.00
2019-02-07T07:15:07.562Z,8.00
2019-02-07T07:20:37.789Z,7.90
2019-02-07T07:26:04.174Z,7.80
2019-02-07T07:31:26.589Z,7.80
2019-02-07T07:36:50.708Z,7.70
2019-02-07T07:42:21.916Z,7.70
2019-02-07T07:47:55.839Z,7.70
2019-02-07T07:53:30.126Z,7.70
2019-02-07T07:59:01.447Z,7.90
2019-02-07T08:04:14.845Z,7.90
2019-02-07T08:09:40.747Z,7.90
2019-02-07T08:15:21.487Z,7.70
2019-02-07T08:20:50.443Z,7.70
2019-02-07T08:26:14.152Z,7.70
2019-02-07T08:31:45.579Z,7.70
2019-02-07T08:37:11.026Z,7.80
2019-02-07T08:42:34.920Z,7.90
2019-02-07T08:47:58.473Z,7.90
2019-02-07T08:53:08.590Z,7.90
2019-02-07T08:58:34.756Z,8.00
2019-02-07T09:04:06.138Z,7.90
2019-02-07T09:09:23.841Z,7.90
2019-02-07T09:14:37.598Z,8.30
2019-02-07T09:20:01.799Z,9.00
2019-02-07T09:25:22.791Z,9.20
2019-02-07T09:31:01.098Z,9.60
2019-02-07T09:36:29.013Z,9.90
2019-02-07T09:42:00.244Z,10.50
2019-02-07T09:47:24.694Z,10.90
2019-02-07T09:52:41.551Z,11.60
2019-02-07T09:58:16.236Z,11.20
2019-02-07T10:03:40.213Z,11.50
2019-02-07T10:09:08.630Z,12.30
2019-02-07T10:14:34.193Z,11.20
2019-02-07T10:20:11.299Z,10.80
2019-02-07T10:25:45.850Z,10.40
2019-02-07T10:31:23.634Z,11.50
2019-02-07T10:36:37.886Z,11.30
2019-02-07T10:42:12.015Z,10.30
2019-02-07T10:47:39.495Z,10.10
2019-02-07T10:52:59.334Z,9.80
2019-02-07T10:58:25.584Z,9.70
2019-02-07T11:04:06.535Z,9.80
2019-02-07T11:09:22.557Z,9.90
2019-02-07T11:14:56.653Z,9.80
2019-02-07T11:20:40.340Z,9.80
2019-02-07T11:26:05.478Z,9.80
2019-02-07T11:31:37.133Z,9.80
2019-02-07T11:37:22.021Z,9.70
2019-02-07T11:42:46.014Z,9.80
2019-02-07T11:48:05.544Z,9.70
2019-02-07T11:53:33.823Z,9.70
2019-02-07T11:59:14.879Z,9.80
2019-02-07T12:04:38.882Z,9.80
2019-02-07T12:09:52.641Z,9.80
2019-02-07T12:15:17.822Z,9.80
2019-02-07T12:20:56.181Z,9.80
2019-02-07T12:26:12.961Z,9.70
2019-02-07T12:31:26.827Z,9.80
2019-02-07T12:36:50.572Z,9.80
2019-02-07T12:42:23.164Z,9.80
2019-02-07T12:47:42.666Z,9.80
2019-02-07T12:53:06.813Z,9.50
2019-02-07T12:58:34.436Z,9.70
2019-02-07T13:04:00.574Z,9.70
2019-02-07T13:09:28.571Z,9.60
2019-02-07T13:14:56.940Z,9.60
2019-02-07T13:20:14.735Z,9.60
2019-02-07T13:25:35.450Z,9.60
2019-02-07T13:30:59.526Z,9.70
2019-02-07T13:36:23.827Z,9.70
2019-02-07T13:41:42.098Z,9.60
2019-02-07T13:47:13.415Z,9.60
2019-02-07T13:52:46.609Z,9.60
2019-02-07T13:58:11.450Z,9.60
2019-02-07T14:03:39.358Z,9.50
2019-02-07T14:09:06.515Z,9.50
2019-02-07T14:14:30.299Z,9.50
2019-02-07T14:20:03.152Z,9.40
2019-02-07T14:25:21.180Z,9.30
2019-02-07T14:30:46.065Z,9.30
2019-02-07T14:36:09.799Z,9.30
2019-02-07T14:41:28.467Z,9.20
2019-02-07T14:46:47.942Z,9.20
2019-02-07T14:51:55.182Z,9.20
2019-02-07T14:57:01.245Z,9.20
2019-02-07T15:02:07.608Z,9.10
2019-02-07T15:07:14.146Z,9.00
2019-02-07T15:12:21.073Z,9.10
2019-02-07T15:17:27.303Z,9.00
2019-02-07T15:22:33.655Z,9.00
2019-02-07T15:27:40.281Z,8.90
2019-02-07T15:32:46.380Z,8.80
2019-02-07T15:37:52.447Z,8.80
2019-02-07T15:43:00.473Z,8.70
2019-02-07T15:48:06.582Z,8.70
2019-02-07T15:53:13.166Z,8.60
2019-02-07T15:58:23.983Z,8.60
2019-02-07T16:03:42.315Z,8.50
2019-02-07T16:08:48.347Z,8.50
2019-02-07T16:13:55.659Z,8.40
2019-02-07T16:19:01.793Z,8.40
2019-02-07T16:24:08.618Z,8.30
2019-02-07T16:29:14.953Z,8.20
2019-02-07T16:34:20.980Z,8.20
2019-02-07T16:39:27.193Z,8.10
2019-02-07T16:44:33.442Z,8.10
2019-02-07T16:49:39.578Z,8.00
2019-02-07T16:54:45.762Z,8.10
2019-02-07T16:59:52.427Z,8.00
2019-02-07T17:04:59.584Z,8.00
2019-02-07T17:10:10.057Z,7.90
2019-02-07T17:15:17.727Z,7.90
2019-02-07T17:20:29.463Z,7.90
2019-02-07T17:25:35.680Z,7.90
2019-02-07T17:30:41.971Z,7.90
2019-02-07T17:35:50.213Z,7.80
2019-02-07T17:40:56.750Z,7.80
2019-02-07T17:46:04.051Z,7.80
2019-02-07T17:51:10.140Z,7.80
2019-02-07T17:56:16.466Z,7.70
2019-02-07T18:01:22.732Z,7.80
2019-02-07T18:06:29.217Z,7.70
2019-02-07T18:11:37.234Z,7.70
2019-02-07T18:16:44.260Z,7.70
2019-02-07T18:21:50.435Z,7.60
2019-02-07T18:26:56.513Z,7.60
2019-02-07T18:32:02.688Z,7.60
2019-02-07T18:37:08.902Z,7.60
2019-02-07T18:42:15.164Z,7.60
2019-02-07T18:47:21.759Z,7.50
2019-02-07T18:52:28.015Z,7.50
2019-02-07T18:57:35.082Z,7.50
2019-02-07T19:02:43.854Z,7.40
2019-02-07T19:07:49.677Z,7.40
2019-02-07T19:12:55.797Z,7.40
2019-02-07T19:18:01.924Z,7.40
2019-02-07T19:23:08.398Z,7.30
2019-02-07T19:28:16.067Z,7.30
2019-02-07T19:33:22.663Z,7.30
2019-02-07T19:38:32.786Z,7.20
2019-02-07T19:43:37.872Z,7.20
2019-02-07T19:48:44.198Z,7.20
2019-02-07T19:53:50.233Z,7.20
2019-02-07T19:58:56.289Z,7.20
2019-02-07T20:04:02.592Z,7.20
2019-02-07T20:09:12.176Z,7.20
2019-02-07T20:14:18.186Z,7.20
2019-02-07T20:19:24.289Z,7.30
2019-02-07T20:24:30.372Z,7.20
2019-02-07T20:29:36.777Z,7.20
2019-02-07T20:34:42.714Z,7.20
2019-02-07T20:39:49.377Z,7.10
2019-02-07T20:44:56.357Z,7.10
2019-02-07T20:50:02.444Z,7.10
2019-02-07T20:55:09.477Z,7.10
2019-02-07T21:00:22.292Z,7.10
2019-02-07T21:05:29.424Z,7.00
2019-02-07T21:10:35.685Z,7.10
2019-02-07T21:15:42.213Z,7.00
2019-02-07T21:20:49.262Z,7.00
2019-02-07T21:25:55.268Z,6.90
2019-02-07T21:31:01.416Z,7.00
2019-02-07T21:36:07.820Z,7.00
2019-02-07T21:41:14.202Z,7.10
2019-02-07T21:46:20.256Z,7.00
2019-02-07T21:51:26.218Z,7.00
2019-02-07T21:56:32.235Z,7.00
2019-02-07T22:01:38.300Z,7.00
2019-02-07T22:06:44.448Z,6.90
2019-02-07T22:11:50.517Z,7.00
2019-02-07T22:16:56.946Z,7.00
2019-02-07T22:22:03.971Z,7.00
2019-02-07T22:27:10.052Z,6.90
2019-02-07T22:32:16.127Z,6.90
2019-02-07T22:37:22.150Z,7.00
2019-02-07T22:42:28.218Z,6.90
2019-02-07T22:47:34.193Z,6.80
2019-02-07T22:52:40.594Z,6.80
2019-02-07T22:57:46.889Z,6.70
2019-02-07T23:02:52.985Z,6.60
2019-02-07T23:07:59.061Z,6.70
2019-02-07T23:13:07.309Z,6.60
2019-02-07T23:18:13.375Z,6.60
2019-02-07T23:23:19.385Z,6.70
2019-02-07T23:28:25.423Z,6.70
2019-02-07T23:33:31.451Z,6.80
2019-02-07T23:38:37.997Z,6.70
2019-02-07T23:43:46.074Z,6.70
2019-02-07T23:48:52.073Z,6.70
2019-02-07T23:53:58.151Z,6.60
2019-02-07T23:59:04.563Z,6.50
